createdAt,value
2019-03-18T00:04:00.000Z,7.8
2019-03-18T00:09:00.000Z,7.6
2019-03-18T00:14:00.000Z,7.6
2019-03-18T00:20:00.000Z,7.5
2019-03-18T00:25:00.000Z,7.5
2019-03-18T00:30:00.000Z,7.4
2019-03-18T00:35:00.000Z,7.4
2019-03-18T00:40:00.000Z,7.3
2019-03-18T00:45:00.000Z,7.3
2019-03-18T00:50:00.000Z,7.3
2019-03-18T00:55:00.000Z,7.3
2019-03-18T01:00:00.000Z,7.4
2019-03-18T01:05:00.000Z,7.4
2019-03-18T01:10:00.000Z,7.4
2019-03-18T01:15:00.000Z,7.4
2019-03-18T01:20:00.000Z,7.4
2019-03-18T01:25:00.000Z,7.4
2019-03-18T01:30:00.000Z,7.4
2019-03-18T01:35:00.000Z,7.3
2019-03-18T01:40:00.000Z,7.3
2019-03-18T01:45:00.000Z,7.3
2019-03-18T01:50:00.000Z,7.2
2019-03-18T01:55:00.000Z,7.2
2019-03-18T02:00:00.000Z,7.2
2019-03-18T02:05:00.000Z,7.2
2019-03-18T02:10:00.000Z,7.2
2019-03-18T02:15:00.000Z,7.2
2019-03-18T02:20:00.000Z,7.2
2019-03-18T02:25:00.000Z,7.2
2019-03-18T02:30:00.000Z,7.3
2019-03-18T02:35:00.000Z,7.3
2019-03-18T02:40:00.000Z,7.2
2019-03-18T02:45:00.000Z,7.3
2019-03-18T02:51:00.000Z,7.2
2019-03-18T02:56:00.000Z,7.2
2019-03-18T03:01:00.000Z,7.2
2019-03-18T03:06:00.000Z,7.2
2019-03-18T03:11:00.000Z,7.3
2019-03-18T03:16:00.000Z,7.3
2019-03-18T03:21:00.000Z,7.2
2019-03-18T03:26:00.000Z,7.2
2019-03-18T03:31:00.000Z,7.2
2019-03-18T03:36:00.000Z,7.2
2019-03-18T03:41:00.000Z,7.2
2019-03-18T03:46:00.000Z,7.2
2019-03-18T03:51:00.000Z,7.2
2019-03-18T03:56:00.000Z,7.2
2019-03-18T04:01:00.000Z,7.2
2019-03-18T04:06:00.000Z,7.2
2019-03-18T04:11:00.000Z,7.1
2019-03-18T04:16:00.000Z,7.2
2019-03-18T04:22:00.000Z,7.2
2019-03-18T04:27:00.000Z,7.2
2019-03-18T04:32:00.000Z,7.2
2019-03-18T04:42:00.000Z,7.2
2019-03-18T04:47:00.000Z,7.2
2019-03-18T04:52:00.000Z,7.1
2019-03-18T04:57:00.000Z,7.1
2019-03-18T05:02:00.000Z,7.1
2019-03-18T05:07:00.000Z,7.0
2019-03-18T05:12:00.000Z,7.0
2019-03-18T05:17:00.000Z,7.0
2019-03-18T05:22:00.000Z,7.0
2019-03-18T05:27:00.000Z,7.0
2019-03-18T05:32:00.000Z,7.0
2019-03-18T05:37:00.000Z,7.1
2019-03-18T05:42:00.000Z,7.0
2019-03-18T05:47:00.000Z,7.0
2019-03-18T05:52:00.000Z,7.0
2019-03-18T05:57:00.000Z,7.0
2019-03-18T06:02:00.000Z,7.0
2019-03-18T06:07:00.000Z,7.1
2019-03-18T06:13:00.000Z,7.1
2019-03-18T06:18:00.000Z,7.1
2019-03-18T06:23:00.000Z,7.1
2019-03-18T06:28:00.000Z,7.1
2019-03-18T06:33:00.000Z,7.1
2019-03-18T06:38:00.000Z,7.1
2019-03-18T06:43:00.000Z,7.1
2019-03-18T06:48:00.000Z,7.1
2019-03-18T06:53:00.000Z,7.1
2019-03-18T06:58:00.000Z,7.1
2019-03-18T07:03:00.000Z,7.2
2019-03-18T07:08:00.000Z,7.1
2019-03-18T07:13:00.000Z,7.1
2019-03-18T07:18:00.000Z,7.1
2019-03-18T07:23:00.000Z,7.1
2019-03-18T07:28:00.000Z,7.1
2019-03-18T07:33:00.000Z,7.1
2019-03-18T07:38:00.000Z,7.1
2019-03-18T07:43:00.000Z,7.2
2019-03-18T07:48:00.000Z,7.2
2019-03-18T07:53:00.000Z,7.2
2019-03-18T07:58:00.000Z,7.3
2019-03-18T08:03:00.000Z,7.3
2019-03-18T08:08:00.000Z,7.4
2019-03-18T08:13:00.000Z,7.4
2019-03-18T08:18:00.000Z,7.4
2019-03-18T08:23:00.000Z,7.4
2019-03-18T08:28:00.000Z,7.5
2019-03-18T08:33:00.000Z,7.6
2019-03-18T08:38:00.000Z,7.6
2019-03-18T08:43:00.000Z,7.7
2019-03-18T08:48:00.000Z,7.7
2019-03-18T08:53:00.000Z,7.8
2019-03-18T08:58:00.000Z,7.9
2019-03-18T09:03:00.000Z,7.9
2019-03-18T09:08:00.000Z,7.8
2019-03-18T09:13:00.000Z,7.9
2019-03-18T09:19:00.000Z,7.9
2019-03-18T09:24:00.000Z,8.0
2019-03-18T09:29:00.000Z,8.1
2019-03-18T09:34:00.000Z,8.2
2019-03-18T09:39:00.000Z,8.3
2019-03-18T09:44:00.000Z,8.3
2019-03-18T09:49:00.000Z,8.4
2019-03-18T09:54:00.000Z,8.5
2019-03-18T09:59:00.000Z,8.6
2019-03-18T10:04:00.000Z,8.7
2019-03-18T10:09:00.000Z,8.6
2019-03-18T10:14:00.000Z,8.6
2019-03-18T10:19:00.000Z,8.6
2019-03-18T10:24:00.000Z,8.6
2019-03-18T10:29:00.000Z,8.5
2019-03-18T10:34:00.000Z,8.3
2019-03-18T10:39:00.000Z,8.4
2019-03-18T10:44:00.000Z,8.4
2019-03-18T10:49:00.000Z,8.4
2019-03-18T10:54:00.000Z,8.4
2019-03-18T10:59:00.000Z,8.4
2019-03-18T11:04:00.000Z,8.3
2019-03-18T11:09:00.000Z,8.4
2019-03-18T11:14:00.000Z,8.5
2019-03-18T11:19:00.000Z,8.5
2019-03-18T11:24:00.000Z,8.6
2019-03-18T11:30:00.000Z,8.7
2019-03-18T11:35:00.000Z,8.8
2019-03-18T11:40:00.000Z,8.9
2019-03-18T11:45:00.000Z,9.1
2019-03-18T11:50:00.000Z,9.2
2019-03-18T11:55:00.000Z,9.3
2019-03-18T12:00:00.000Z,9.3
2019-03-18T12:05:00.000Z,9.4
2019-03-18T12:10:00.000Z,9.4
2019-03-18T12:15:00.000Z,9.5
2019-03-18T12:20:00.000Z,9.5
2019-03-18T12:25:00.000Z,9.4
2019-03-18T12:30:00.000Z,9.3
2019-03-18T12:35:00.000Z,9.2
2019-03-18T12:40:00.000Z,9.3
2019-03-18T12:45:00.000Z,9.5
2019-03-18T12:50:00.000Z,9.7
2019-03-18T12:55:00.000Z,9.9
2019-03-18T13:00:00.000Z,9.8
2019-03-18T13:05:00.000Z,9.8
2019-03-18T13:10:00.000Z,9.9
2019-03-18T13:15:00.000Z,9.9
2019-03-18T13:21:00.000Z,10.0
2019-03-18T13:26:00.000Z,10.0
2019-03-18T13:31:00.000Z,10.1
2019-03-18T13:36:00.000Z,10.2
2019-03-18T13:41:00.000Z,10.0
2019-03-18T13:46:00.000Z,9.9
2019-03-18T13:51:00.000Z,9.8
2019-03-18T13:56:00.000Z,9.8
2019-03-18T14:01:00.000Z,9.7
2019-03-18T14:06:00.000Z,9.7
2019-03-18T14:11:00.000Z,9.6
2019-03-18T14:16:00.000Z,9.6
2019-03-18T14:21:00.000Z,9.5
2019-03-18T14:26:00.000Z,9.5
2019-03-18T14:31:00.000Z,9.5
2019-03-18T14:36:00.000Z,9.5
2019-03-18T14:41:00.000Z,9.5
2019-03-18T14:46:00.000Z,9.4
2019-03-18T14:51:00.000Z,9.3
2019-03-18T14:56:00.000Z,9.2
2019-03-18T15:01:00.000Z,9.1
2019-03-18T15:06:00.000Z,9.1
2019-03-18T15:11:00.000Z,9.1
2019-03-18T15:16:00.000Z,9.0
2019-03-18T15:21:00.000Z,9.0
2019-03-18T15:26:00.000Z,8.9
2019-03-18T15:31:00.000Z,8.8
2019-03-18T15:37:00.000Z,8.6
2019-03-18T15:42:00.000Z,8.5
2019-03-18T15:47:00.000Z,8.5
2019-03-18T15:52:00.000Z,8.3
2019-03-18T15:57:00.000Z,8.2
2019-03-18T16:02:00.000Z,8.2
2019-03-18T16:07:00.000Z,8.1
2019-03-18T16:12:00.000Z,8.1
2019-03-18T16:17:00.000Z,8.1
2019-03-18T16:22:00.000Z,8.0
2019-03-18T16:27:00.000Z,8.0
2019-03-18T16:32:00.000Z,8.0
2019-03-18T16:37:00.000Z,8.0
2019-03-18T16:42:00.000Z,8.0
2019-03-18T16:47:00.000Z,7.9
2019-03-18T16:52:00.000Z,7.9
2019-03-18T16:57:00.000Z,7.9
2019-03-18T17:02:00.000Z,7.8
2019-03-18T17:07:00.000Z,7.9
2019-03-18T17:12:00.000Z,7.8
2019-03-18T17:17:00.000Z,7.8
2019-03-18T17:22:00.000Z,7.8
2019-03-18T17:27:00.000Z,7.7
2019-03-18T17:32:00.000Z,7.7
2019-03-18T17:37:00.000Z,7.6
2019-03-18T17:42:00.000Z,7.6
2019-03-18T17:47:00.000Z,7.5
2019-03-18T17:52:00.000Z,7.5
2019-03-18T17:58:00.000Z,7.5
2019-03-18T18:03:00.000Z,7.5
2019-03-18T18:08:00.000Z,7.4
2019-03-18T18:13:00.000Z,7.4
2019-03-18T18:18:00.000Z,7.4
2019-03-18T18:23:00.000Z,7.4
2019-03-18T18:28:00.000Z,7.3
2019-03-18T18:33:00.000Z,7.4
2019-03-18T18:38:00.000Z,7.3
2019-03-18T18:43:00.000Z,7.3
2019-03-18T18:48:00.000Z,7.3
2019-03-18T18:53:00.000Z,7.2
2019-03-18T18:58:00.000Z,7.1
2019-03-18T19:03:00.000Z,7.1
2019-03-18T19:08:00.000Z,7.0
2019-03-18T19:13:00.000Z,7.0
2019-03-18T19:18:00.000Z,6.9
2019-03-18T19:23:00.000Z,6.9
2019-03-18T19:28:00.000Z,6.9
2019-03-18T19:33:00.000Z,6.8
2019-03-18T19:38:00.000Z,6.8
2019-03-18T19:43:00.000Z,6.8
2019-03-18T19:48:00.000Z,6.7
2019-03-18T19:53:00.000Z,6.7
2019-03-18T19:58:00.000Z,6.7
2019-03-18T20:03:00.000Z,6.7
2019-03-18T20:08:00.000Z,6.7
2019-03-18T20:13:00.000Z,6.7
2019-03-18T20:18:00.000Z,6.7
2019-03-18T20:23:00.000Z,6.7
2019-03-18T20:29:00.000Z,6.6
2019-03-18T20:34:00.000Z,6.6
2019-03-18T20:39:00.000Z,6.6
2019-03-18T20:44:00.000Z,6.6
2019-03-18T20:49:00.000Z,6.6
2019-03-18T20:54:00.000Z,6.6
2019-03-18T20:59:00.000Z,6.6
2019-03-18T21:04:00.000Z,6.5
2019-03-18T21:09:00.000Z,6.5
2019-03-18T21:14:00.000Z,6.5
2019-03-18T21:19:00.000Z,6.4
2019-03-18T21:24:00.000Z,6.4
2019-03-18T21:29:00.000Z,6.4
2019-03-18T21:34:00.000Z,6.4
2019-03-18T21:39:00.000Z,6.4
2019-03-18T21:44:00.000Z,6.4
2019-03-18T21:49:00.000Z,6.4
2019-03-18T21:54:00.000Z,6.3
2019-03-18T21:59:00.000Z,6.3
2019-03-18T22:04:00.000Z,6.2
2019-03-18T22:09:00.000Z,6.2
2019-03-18T22:14:00.000Z,6.2
2019-03-18T22:19:00.000Z,6.2
2019-03-18T22:24:00.000Z,6.2
2019-03-18T22:29:00.000Z,6.2
2019-03-18T22:34:00.000Z,6.2
2019-03-18T22:39:00.000Z,6.2
2019-03-18T22:44:00.000Z,6.2
2019-03-18T22:49:00.000Z,6.2
2019-03-18T22:54:00.000Z,6.2
2019-03-18T22:59:00.000Z,6.2
2019-03-18T23:04:00.000Z,6.1
2019-03-18T23:09:00.000Z,6.1
2019-03-18T23:14:00.000Z,6.1
2019-03-18T23:19:00.000Z,6.0
2019-03-18T23:25:00.000Z,6.0
2019-03-18T23:30:00.000Z,6.0
2019-03-18T23:35:00.000Z,6.0
2019-03-18T23:40:00.000Z,5.9
2019-03-18T23:45:00.000Z,5.9
2019-03-18T23:50:00.000Z,5.8
2019-03-18T23:55:00.000Z,5.8
